createdAt,value
2022-12-11T00:01:29.389Z,52.40
2022-12-11T00:04:01.525Z,30.50
2022-12-11T00:06:34.621Z,47.00
2022-12-11T00:09:06.841Z,50.80
2022-12-11T00:11:39.004Z,44.90
2022-12-11T00:16:43.297Z,37.20
2022-12-11T00:19:15.812Z,33.50
2022-12-11T00:21:48.122Z,51.20
2022-12-11T00:24:20.239Z,44.10
2022-12-11T00:29:22.995Z,45.80
2022-12-11T00:34:25.692Z,40.00
2022-12-11T00:39:52.904Z,45.30
2022-12-11T00:42:25.032Z,41.40
2022-12-11T00:47:28.922Z,38.40
2022-12-11T00:52:32.161Z,32.20
2022-12-11T00:57:34.954Z,31.10
2022-12-11T01:02:39.274Z,32.30
2022-12-11T01:05:12.480Z,31.40
2022-12-11T01:07:44.956Z,25.70
2022-12-11T01:10:33.480Z,35.40
2022-12-11T01:13:07.938Z,37.30
2022-12-11T01:15:43.644Z,40.60
2022-12-11T01:18:16.964Z,33.20
2022-12-11T01:20:49.067Z,34.60
2022-12-11T01:25:52.345Z,33.70
2022-12-11T01:28:24.598Z,28.80
2022-12-11T01:33:27.230Z,20.20
2022-12-11T01:38:30.236Z,25.70
2022-12-11T01:41:02.283Z,26.20
2022-12-11T01:46:05.367Z,33.80
2022-12-11T01:48:42.103Z,28.60
2022-12-11T01:51:15.477Z,31.60
2022-12-11T01:53:53.886Z,29.00
2022-12-11T01:56:26.602Z,33.40
2022-12-11T01:59:02.887Z,29.90
2022-12-11T02:01:39.166Z,25.30
2022-12-11T02:04:12.458Z,27.50
2022-12-11T02:06:46.890Z,35.60
2022-12-11T02:09:21.226Z,28.90
2022-12-11T02:12:02.565Z,27.70
2022-12-11T02:14:40.163Z,29.30
2022-12-11T02:17:18.131Z,29.10
2022-12-11T02:20:03.446Z,27.10
2022-12-11T02:23:00.151Z,28.80
2022-12-11T02:25:38.093Z,32.40
2022-12-11T02:28:25.198Z,29.60
2022-12-11T02:31:03.803Z,41.70
2022-12-11T02:33:43.400Z,25.90
2022-12-11T02:36:18.685Z,30.30
2022-12-11T02:38:54.368Z,27.90
2022-12-11T02:41:30.107Z,31.40
2022-12-11T02:44:03.720Z,34.40
2022-12-11T02:46:38.011Z,27.30
2022-12-11T02:49:12.766Z,28.50
2022-12-11T02:51:45.701Z,36.60
2022-12-11T02:54:21.810Z,33.00
2022-12-11T02:56:59.046Z,31.20
2022-12-11T02:59:37.057Z,34.60
2022-12-11T03:02:09.561Z,26.00
2022-12-11T03:04:43.141Z,28.40
2022-12-11T03:07:19.888Z,32.60
2022-12-11T03:09:53.131Z,29.90
2022-12-11T03:12:29.186Z,28.70
2022-12-11T03:15:05.586Z,31.20
2022-12-11T03:17:45.527Z,23.40
2022-12-11T03:20:26.494Z,34.50
2022-12-11T03:23:03.607Z,33.80
2022-12-11T03:25:43.701Z,23.60
2022-12-11T03:28:20.777Z,36.30
2022-12-11T03:30:54.962Z,22.50
2022-12-11T03:33:32.803Z,28.40
2022-12-11T03:36:10.865Z,23.40
2022-12-11T03:38:49.201Z,30.50
2022-12-11T03:41:25.818Z,36.50
2022-12-11T03:44:00.049Z,25.50
2022-12-11T03:46:35.319Z,32.40
2022-12-11T03:49:11.867Z,28.60
2022-12-11T03:51:45.792Z,32.10
2022-12-11T03:54:18.638Z,30.90
2022-12-11T03:56:52.216Z,40.30
2022-12-11T03:59:24.768Z,28.70
2022-12-11T04:01:56.975Z,33.10
2022-12-11T04:04:29.149Z,30.30
2022-12-11T04:09:31.858Z,28.20
2022-12-11T04:12:03.846Z,41.90
2022-12-11T04:14:53.616Z,40.10
2022-12-11T04:17:43.149Z,34.40
2022-12-11T04:20:32.658Z,39.50
2022-12-11T04:23:24.646Z,31.30
2022-12-11T04:26:04.369Z,40.10
2022-12-11T04:28:37.289Z,41.40
2022-12-11T04:31:12.189Z,28.00
2022-12-11T04:33:44.554Z,31.80
2022-12-11T04:36:17.036Z,43.70
2022-12-11T04:38:49.075Z,31.60
2022-12-11T04:41:21.271Z,32.60
2022-12-11T04:43:53.616Z,33.90
2022-12-11T04:48:58.146Z,46.30
2022-12-11T04:51:30.944Z,43.40
2022-12-11T04:54:03.081Z,37.40
2022-12-11T04:56:35.275Z,32.70
2022-12-11T05:01:37.882Z,34.30
2022-12-11T05:04:10.902Z,32.80
2022-12-11T05:06:43.960Z,42.50
2022-12-11T05:09:16.180Z,47.20
2022-12-11T05:11:49.326Z,35.40
2022-12-11T05:14:21.566Z,48.90
2022-12-11T05:16:53.618Z,41.20
2022-12-11T05:19:25.714Z,39.10
2022-12-11T05:24:28.532Z,37.20
2022-12-11T05:29:31.003Z,45.30
2022-12-11T05:32:03.111Z,43.90
2022-12-11T05:34:35.443Z,46.90
2022-12-11T05:39:40.222Z,43.60
2022-12-11T05:42:12.569Z,38.10
2022-12-11T05:44:44.741Z,40.30
2022-12-11T05:47:17.024Z,31.70
2022-12-11T05:52:20.019Z,30.70
2022-12-11T05:54:52.578Z,47.70
2022-12-11T05:57:24.688Z,34.80
2022-12-11T05:59:56.976Z,41.80
2022-12-11T06:02:29.233Z,37.30
2022-12-11T06:05:01.439Z,44.40
2022-12-11T06:07:34.712Z,35.70
2022-12-11T06:10:07.777Z,37.00
2022-12-11T06:12:40.975Z,37.10
2022-12-11T06:15:13.670Z,30.30
2022-12-11T06:17:45.969Z,31.80
2022-12-11T06:22:49.284Z,44.00
2022-12-11T06:25:21.443Z,39.90
2022-12-11T06:30:37.541Z,44.50
2022-12-11T06:33:12.073Z,28.90
2022-12-11T06:35:44.597Z,37.00
2022-12-11T06:40:47.639Z,39.40
2022-12-11T06:43:19.753Z,49.30
2022-12-11T06:45:51.989Z,37.10
2022-12-11T06:50:55.023Z,48.70
2022-12-11T06:53:27.149Z,38.60
2022-12-11T06:56:07.374Z,52.30
2022-12-11T06:58:40.113Z,46.10
2022-12-11T07:01:19.904Z,39.50
2022-12-11T07:03:53.745Z,46.80
2022-12-11T07:06:26.582Z,44.00
2022-12-11T07:08:59.128Z,46.20
2022-12-11T07:11:31.369Z,38.90
2022-12-11T07:14:03.652Z,34.80
2022-12-11T07:16:36.247Z,34.60
2022-12-11T07:19:08.857Z,32.30
2022-12-11T07:21:41.022Z,37.10
2022-12-11T07:26:43.724Z,33.20
2022-12-11T07:29:16.723Z,31.00
2022-12-11T07:31:49.636Z,37.80
2022-12-11T07:34:22.034Z,52.50
2022-12-11T07:36:54.081Z,50.00
2022-12-11T07:39:27.131Z,59.40
2022-12-11T07:41:59.291Z,53.60
2022-12-11T07:44:31.996Z,47.70
2022-12-11T07:47:04.756Z,45.70
2022-12-11T07:49:37.032Z,49.80
2022-12-11T07:54:41.713Z,36.00
2022-12-11T07:57:14.448Z,34.30
2022-12-11T07:59:47.846Z,40.00
2022-12-11T08:02:20.776Z,44.80
2022-12-11T08:04:53.635Z,57.70
2022-12-11T08:07:26.403Z,46.20
2022-12-11T08:09:59.601Z,55.70
2022-12-11T08:12:31.577Z,51.40
2022-12-11T08:15:04.464Z,55.30
2022-12-11T08:17:40.167Z,42.10
2022-12-11T08:20:13.436Z,49.80
2022-12-11T08:22:46.141Z,37.50
2022-12-11T08:25:19.911Z,62.60
2022-12-11T08:27:52.483Z,55.20
2022-12-11T08:30:25.558Z,53.60
2022-12-11T08:32:57.974Z,61.40
2022-12-11T08:35:30.504Z,66.60
2022-12-11T08:38:02.672Z,70.80
2022-12-11T08:43:07.083Z,55.90
2022-12-11T08:48:12.597Z,70.40
2022-12-11T08:50:45.498Z,94.10
2022-12-11T08:53:18.310Z,78.40
2022-12-11T08:55:52.073Z,88.70
2022-12-11T08:58:24.757Z,81.20
2022-12-11T09:00:56.888Z,136.00
2022-12-11T09:03:30.018Z,124.60
2022-12-11T09:11:47.037Z,65.50
2022-12-11T09:14:19.529Z,86.80
2022-12-11T09:16:52.483Z,89.50
2022-12-11T09:19:30.616Z,72.60
2022-12-11T09:22:04.424Z,68.10
2022-12-11T09:27:07.999Z,64.20
2022-12-11T09:29:40.577Z,54.00
2022-12-11T09:32:12.911Z,77.50
2022-12-11T09:34:46.731Z,44.40
2022-12-11T09:37:19.809Z,56.80
2022-12-11T09:39:52.849Z,52.70
2022-12-11T09:42:32.323Z,46.20
2022-12-11T09:45:07.210Z,56.10
2022-12-11T09:47:42.243Z,51.40
2022-12-11T09:50:20.693Z,54.40
2022-12-11T09:53:05.236Z,100.30
2022-12-11T09:55:44.428Z,136.60
2022-12-11T09:58:26.153Z,198.10
2022-12-11T10:01:05.042Z,103.60
2022-12-11T10:04:03.946Z,86.90
2022-12-11T10:06:43.137Z,48.30
2022-12-11T10:09:24.442Z,58.20
2022-12-11T10:12:09.867Z,55.80
2022-12-11T10:14:54.408Z,74.50
2022-12-11T10:17:32.167Z,84.00
2022-12-11T10:20:16.068Z,65.70
2022-12-11T10:22:49.455Z,78.20
2022-12-11T10:25:28.542Z,75.50
2022-12-11T10:28:01.500Z,64.80
2022-12-11T10:30:41.531Z,49.60
2022-12-11T10:33:22.614Z,45.30
2022-12-11T10:35:56.800Z,48.70
2022-12-11T10:38:32.240Z,50.40
2022-12-11T10:41:10.385Z,39.70
2022-12-11T10:43:44.557Z,61.00
2022-12-11T10:46:21.663Z,43.30
2022-12-11T10:48:56.740Z,38.40
2022-12-11T10:51:37.529Z,48.90
2022-12-11T10:54:19.043Z,55.20
2022-12-11T10:56:51.926Z,49.90
2022-12-11T10:59:31.205Z,49.60
2022-12-11T11:02:03.725Z,40.30
2022-12-11T11:04:44.779Z,45.20
2022-12-11T11:07:20.678Z,46.50
2022-12-11T11:10:04.724Z,36.50
2022-12-11T11:12:42.235Z,38.00
2022-12-11T11:15:18.996Z,45.90
2022-12-11T11:17:55.860Z,44.10
2022-12-11T11:20:52.180Z,39.10
2022-12-11T11:23:25.788Z,32.60
2022-12-11T11:25:59.767Z,35.80
2022-12-11T11:28:36.801Z,47.30
2022-12-11T11:31:13.073Z,45.30
2022-12-11T11:33:56.703Z,44.60
2022-12-11T11:36:34.625Z,82.80
2022-12-11T11:39:21.904Z,47.70
2022-12-11T11:42:00.122Z,41.80
2022-12-11T11:44:38.844Z,38.80
2022-12-11T11:47:16.161Z,31.70
2022-12-11T11:49:59.452Z,40.80
2022-12-11T11:52:36.704Z,37.70
2022-12-11T11:55:21.639Z,40.30
2022-12-11T11:58:02.041Z,88.70
2022-12-11T12:00:34.411Z,220.90
2022-12-11T12:03:14.498Z,166.40
2022-12-11T12:05:55.287Z,117.80
2022-12-11T12:08:41.038Z,62.30
2022-12-11T12:11:26.223Z,66.50
2022-12-11T12:14:29.194Z,49.30
2022-12-11T12:17:17.517Z,51.70
2022-12-11T12:20:00.195Z,43.60
2022-12-11T12:22:48.962Z,44.40
2022-12-11T12:25:27.236Z,46.40
2022-12-11T12:28:07.124Z,46.40
2022-12-11T12:30:57.043Z,76.10
2022-12-11T12:33:39.420Z,98.60
2022-12-11T12:36:23.988Z,240.50
2022-12-11T12:39:01.958Z,290.00
2022-12-11T12:41:44.757Z,229.40
2022-12-11T12:44:19.330Z,139.60
2022-12-11T12:47:01.886Z,60.60
2022-12-11T12:49:39.831Z,67.10
2022-12-11T12:52:16.870Z,46.90
2022-12-11T12:55:07.592Z,63.20
2022-12-11T12:57:43.341Z,62.00
2022-12-11T13:00:30.029Z,62.50
2022-12-11T13:03:14.377Z,269.80
2022-12-11T13:05:56.902Z,63.40
2022-12-11T13:08:38.966Z,47.10
2022-12-11T13:11:13.939Z,34.60
2022-12-11T13:13:54.937Z,49.20
2022-12-11T13:16:38.590Z,40.90
2022-12-11T13:19:28.174Z,45.90
2022-12-11T13:22:04.357Z,47.40
2022-12-11T13:24:46.679Z,47.80
2022-12-11T13:30:22.633Z,40.20
2022-12-11T13:33:03.247Z,42.60
2022-12-11T13:35:37.348Z,33.60
2022-12-11T13:38:17.927Z,46.50
2022-12-11T13:40:56.931Z,40.00
2022-12-11T13:43:32.428Z,46.60
2022-12-11T13:46:07.126Z,50.60
2022-12-11T13:48:45.367Z,92.50
2022-12-11T13:51:21.673Z,74.90
2022-12-11T13:54:05.683Z,93.10
2022-12-11T13:56:37.861Z,60.50
2022-12-11T13:59:24.852Z,66.80
2022-12-11T14:02:01.569Z,96.50
2022-12-11T14:04:35.137Z,36.40
2022-12-11T14:07:10.974Z,43.40
2022-12-11T14:09:47.052Z,52.30
2022-12-11T14:12:22.985Z,50.70
2022-12-11T14:14:59.299Z,70.30
2022-12-11T14:17:34.025Z,49.50
2022-12-11T14:20:16.390Z,57.20
2022-12-11T14:25:26.186Z,48.10
2022-12-11T14:27:59.230Z,46.40
2022-12-11T14:30:34.304Z,48.60
2022-12-11T14:33:07.650Z,40.00
2022-12-11T14:35:43.819Z,42.90
2022-12-11T14:38:20.970Z,46.10
2022-12-11T14:40:56.817Z,44.80
2022-12-11T14:43:35.003Z,44.50
2022-12-11T14:46:16.900Z,42.80
2022-12-11T14:49:00.422Z,43.30
2022-12-11T14:51:40.389Z,36.00
2022-12-11T14:54:22.289Z,42.20
2022-12-11T14:56:55.178Z,38.20
2022-12-11T14:59:32.256Z,30.50
2022-12-11T15:02:22.965Z,37.30
2022-12-11T15:05:14.160Z,37.40
2022-12-11T15:07:57.482Z,38.30
2022-12-11T15:10:36.787Z,36.90
2022-12-11T15:13:11.287Z,29.50
2022-12-11T15:15:50.235Z,28.00
2022-12-11T15:18:27.006Z,34.30
2022-12-11T15:21:00.863Z,38.20
2022-12-11T15:23:38.248Z,34.90
2022-12-11T15:26:10.733Z,34.50
2022-12-11T15:28:43.171Z,35.40
2022-12-11T15:31:28.533Z,35.50
2022-12-11T15:34:00.903Z,38.30
2022-12-11T15:36:36.802Z,41.10
2022-12-11T15:39:09.797Z,35.30
2022-12-11T15:41:44.769Z,36.40
2022-12-11T15:44:23.751Z,32.10
2022-12-11T15:46:56.857Z,32.40
2022-12-11T15:49:29.413Z,30.50
2022-12-11T15:52:01.566Z,32.00
2022-12-11T15:57:07.453Z,37.30
2022-12-11T15:59:40.425Z,34.00
2022-12-11T16:02:14.171Z,29.00
2022-12-11T16:04:46.341Z,31.20
2022-12-11T16:09:53.075Z,24.90
2022-12-11T16:12:25.319Z,29.40
2022-12-11T16:14:57.568Z,24.60
2022-12-11T16:20:00.479Z,25.30
2022-12-11T16:22:33.060Z,23.20
2022-12-11T16:25:06.078Z,28.30
2022-12-11T16:27:38.503Z,30.30
2022-12-11T16:30:13.305Z,28.30
2022-12-11T16:32:45.534Z,24.60
2022-12-11T16:35:19.033Z,25.70
2022-12-11T16:37:54.068Z,30.20
2022-12-11T16:40:26.503Z,31.50
2022-12-11T16:42:59.617Z,31.30
2022-12-11T16:45:32.356Z,36.30
2022-12-11T16:48:07.935Z,33.90
2022-12-11T16:50:42.383Z,29.50
2022-12-11T16:53:15.861Z,30.20
2022-12-11T16:55:48.765Z,29.90
2022-12-11T16:58:21.518Z,28.10
2022-12-11T17:01:02.139Z,27.40
2022-12-11T17:03:35.757Z,26.00
2022-12-11T17:06:11.544Z,26.50
2022-12-11T17:08:44.733Z,26.20
2022-12-11T17:11:19.668Z,25.40
2022-12-11T17:13:56.830Z,24.30
2022-12-11T17:16:31.400Z,23.30
2022-12-11T17:19:07.241Z,20.10
2022-12-11T17:21:39.483Z,27.10
2022-12-11T17:24:12.002Z,30.10
2022-12-11T17:26:44.570Z,22.50
2022-12-11T17:29:17.561Z,22.50
2022-12-11T17:31:52.053Z,26.50
2022-12-11T17:34:25.062Z,28.00
2022-12-11T17:36:57.334Z,31.40
2022-12-11T17:39:30.005Z,24.40
2022-12-11T17:42:02.626Z,22.40
2022-12-11T17:44:35.363Z,27.00
2022-12-11T17:47:11.213Z,26.20
2022-12-11T17:49:43.730Z,25.10
2022-12-11T17:52:16.363Z,22.40
2022-12-11T17:54:49.152Z,23.80
2022-12-11T17:57:21.830Z,32.30
2022-12-11T17:59:56.523Z,26.10
2022-12-11T18:02:29.039Z,26.50
2022-12-11T18:05:01.335Z,24.40
2022-12-11T18:10:05.131Z,23.80
2022-12-11T18:12:37.609Z,20.50
2022-12-11T18:15:13.132Z,22.20
2022-12-11T18:17:45.822Z,17.90
2022-12-11T18:20:18.909Z,22.00
2022-12-11T18:22:52.911Z,21.30
2022-12-11T18:25:25.460Z,26.90
2022-12-11T18:27:59.611Z,24.90
2022-12-11T18:30:31.907Z,21.00
2022-12-11T18:33:04.693Z,24.50
2022-12-11T18:35:37.635Z,25.00
2022-12-11T18:38:10.590Z,24.20
2022-12-11T18:40:42.857Z,19.90
2022-12-11T18:43:15.184Z,24.20
2022-12-11T18:45:47.526Z,22.10
2022-12-11T18:48:20.085Z,23.20
2022-12-11T18:50:53.803Z,22.40
2022-12-11T18:53:26.678Z,19.50
2022-12-11T18:56:00.750Z,26.50
2022-12-11T18:58:33.430Z,25.20
2022-12-11T19:01:12.333Z,24.80
2022-12-11T19:03:45.104Z,24.70
2022-12-11T19:06:19.497Z,26.50
2022-12-11T19:08:51.950Z,26.10
2022-12-11T19:11:25.948Z,19.70
2022-12-11T19:13:58.927Z,24.70
2022-12-11T19:16:34.645Z,26.10
2022-12-11T19:19:10.301Z,25.80
2022-12-11T19:21:43.170Z,32.20
2022-12-11T19:24:20.017Z,29.80
2022-12-11T19:26:52.714Z,28.70
2022-12-11T19:29:27.339Z,27.90
2022-12-11T19:31:59.738Z,27.80
2022-12-11T19:34:32.094Z,26.80
2022-12-11T19:37:04.317Z,23.60
2022-12-11T19:39:39.103Z,25.30
2022-12-11T19:42:11.200Z,24.10
2022-12-11T19:47:14.003Z,15.40
2022-12-11T19:52:17.192Z,23.00
2022-12-11T19:57:20.027Z,26.20
2022-12-11T19:59:57.062Z,23.10
2022-12-11T20:02:29.938Z,25.60
2022-12-11T20:05:02.053Z,20.90
2022-12-11T20:07:34.343Z,23.00
2022-12-11T20:12:37.726Z,25.40
2022-12-11T20:15:12.077Z,29.60
2022-12-11T20:17:44.753Z,25.60
2022-12-11T20:20:17.126Z,25.20
2022-12-11T20:22:52.691Z,23.50
2022-12-11T20:25:25.504Z,22.80
2022-12-11T20:27:58.303Z,26.50
2022-12-11T20:30:30.730Z,30.10
2022-12-11T20:33:03.057Z,28.10
2022-12-11T20:35:35.400Z,25.90
2022-12-11T20:38:07.906Z,26.90
2022-12-11T20:40:40.691Z,27.20
2022-12-11T20:43:14.067Z,25.70
2022-12-11T20:45:51.188Z,28.30
2022-12-11T20:48:23.372Z,26.00
2022-12-11T20:50:55.854Z,24.80
2022-12-11T20:53:29.189Z,26.80
2022-12-11T20:56:02.015Z,28.10
2022-12-11T20:58:34.593Z,28.10
2022-12-11T21:01:07.703Z,26.10
2022-12-11T21:03:42.275Z,30.10
2022-12-11T21:06:22.338Z,30.60
2022-12-11T21:08:55.327Z,24.30
2022-12-11T21:13:58.395Z,23.20
2022-12-11T21:16:30.926Z,25.50
2022-12-11T21:19:03.377Z,27.90
2022-12-11T21:21:39.878Z,24.60
2022-12-11T21:24:16.980Z,27.20
2022-12-11T21:26:49.953Z,28.10
2022-12-11T21:29:22.313Z,26.70
2022-12-11T21:31:54.988Z,28.00
2022-12-11T21:34:27.886Z,26.30
2022-12-11T21:37:00.019Z,25.50
2022-12-11T21:42:11.271Z,25.00
2022-12-11T21:47:35.874Z,24.20
2022-12-11T21:50:08.910Z,29.50
2022-12-11T21:52:41.588Z,28.40
2022-12-11T21:55:14.895Z,27.30
2022-12-11T21:57:47.089Z,28.10
2022-12-11T22:03:14.514Z,26.60
2022-12-11T22:05:46.843Z,23.70
2022-12-11T22:08:19.231Z,21.30
2022-12-11T22:10:51.516Z,32.60
2022-12-11T22:15:55.182Z,34.30
2022-12-11T22:18:28.573Z,31.10
2022-12-11T22:21:01.102Z,28.60
2022-12-11T22:23:33.441Z,31.90
2022-12-11T22:28:36.202Z,25.10
2022-12-11T22:31:12.739Z,31.00
2022-12-11T22:33:44.959Z,29.30
2022-12-11T22:36:17.871Z,30.70
2022-12-11T22:38:50.171Z,27.40
2022-12-11T22:41:26.042Z,32.30
2022-12-11T22:43:58.896Z,35.60
2022-12-11T22:46:32.392Z,29.70
2022-12-11T22:49:04.618Z,34.90
2022-12-11T22:51:37.288Z,28.10
2022-12-11T22:54:09.676Z,32.90
2022-12-11T22:56:41.958Z,30.40
2022-12-11T22:59:17.356Z,27.00
2022-12-11T23:01:49.497Z,30.00
2022-12-11T23:06:52.313Z,33.00
2022-12-11T23:09:25.184Z,32.60
2022-12-11T23:11:58.559Z,28.80
2022-12-11T23:14:31.160Z,32.10
2022-12-11T23:17:03.189Z,28.70
2022-12-11T23:19:36.411Z,30.40
2022-12-11T23:22:08.687Z,24.50
2022-12-11T23:24:40.955Z,27.40
2022-12-11T23:27:14.919Z,24.60
2022-12-11T23:29:47.049Z,28.70
2022-12-11T23:32:19.156Z,25.80
2022-12-11T23:37:21.891Z,28.40
2022-12-11T23:42:24.700Z,26.80
2022-12-11T23:47:27.367Z,21.90
2022-12-11T23:52:29.916Z,21.70
2022-12-11T23:57:32.788Z,27.60
